Time;durP1;ratioP1;P1;durP2;ratioP2;P2;SDS_P1;SDS_P2;PMS_P1;PMS_P2;Temp;Humidity;BMP_temperature;BMP_pressure;BME280_temperature;BME280_humidity;BME280_pressure;Samples;Min_cycle;Max_cycle;Signal;HPM_P1;HPM_P2
2023/04/04 00:01:57;0.00;0.00;0.62;0.00;0.00;0.62;1.50;0.90;;;22.70;20.70;;;;;;2264546;61;20410;-62
2023/04/04 00:04:43;0.00;0.00;0.62;0.00;0.00;0.62;2.40;0.77;;;22.70;20.70;;;;;;2264102;61;20372;-64
2023/04/04 00:07:28;0.00;0.00;0.62;0.00;0.00;0.62;1.80;0.80;;;22.70;20.70;;;;;;2263936;61;20430;-62
2023/04/04 00:10:13;0.00;0.00;0.62;0.00;0.00;0.62;1.70;0.80;;;22.70;20.70;;;;;;2263759;61;20410;-63
2023/04/04 00:12:58;0.00;0.00;0.62;0.00;0.00;0.62;1.70;1.17;;;22.70;20.70;;;;;;2264423;61;20782;-62
2023/04/04 00:15:42;0.00;0.00;0.62;0.00;0.00;0.62;1.53;0.90;;;22.70;20.70;;;;;;2264162;61;20364;-62
2023/04/04 00:18:27;0.00;0.00;0.62;0.00;0.00;0.62;1.40;0.90;;;22.70;20.70;;;;;;2264222;61;20407;-62
2023/04/04 00:21:13;0.00;0.00;0.62;0.00;0.00;0.62;1.70;1.03;;;22.70;20.70;;;;;;2263530;61;20859;-62
2023/04/04 00:23:58;0.00;0.00;0.62;0.00;0.00;0.62;1.30;0.80;;;22.70;20.70;;;;;;2260939;61;20368;-60
2023/04/04 00:26:43;0.00;0.00;0.62;0.00;0.00;0.62;1.70;0.90;;;22.70;20.70;;;;;;2260782;61;20430;-62
2023/04/04 00:29:28;0.00;0.00;0.62;0.00;0.00;0.62;1.50;0.80;;;22.60;20.60;;;;;;2263665;61;20438;-62
2023/04/04 00:32:12;0.00;0.00;0.62;0.00;0.00;0.62;1.40;0.77;;;22.60;20.60;;;;;;2260849;61;20435;-63
2023/04/04 00:34:57;0.00;0.00;0.62;0.00;0.00;0.62;1.60;0.80;;;22.60;20.60;;;;;;2261061;61;20643;-62
2023/04/04 00:37:43;0.00;0.00;0.62;0.00;0.00;0.62;1.63;0.80;;;22.60;20.60;;;;;;2263927;61;20438;-66
2023/04/04 00:40:29;0.00;0.00;0.62;0.00;0.00;0.62;1.40;0.80;;;22.60;20.60;;;;;;2263871;61;20817;-62
2023/04/04 00:43:14;0.00;0.00;0.62;0.00;0.00;0.62;1.40;0.80;;;22.60;20.60;;;;;;2263866;61;20863;-62
2023/04/04 00:45:58;0.00;0.00;0.62;0.00;0.00;0.62;1.43;0.70;;;22.60;20.60;;;;;;2264335;61;20364;-62
2023/04/04 00:48:43;0.00;0.00;0.62;0.00;0.00;0.62;1.40;0.90;;;22.60;20.60;;;;;;2264166;61;20823;-62
2023/04/04 00:51:28;0.00;0.00;0.62;0.00;0.00;0.62;1.47;0.90;;;22.60;20.60;;;;;;2263621;61;20443;-62
2023/04/04 00:54:14;0.00;0.00;0.62;0.00;0.00;0.62;2.20;0.80;;;22.60;20.60;;;;;;2260826;61;20442;-62
2023/04/04 00:57:00;0.00;0.00;0.62;0.00;0.00;0.62;1.50;0.70;;;22.50;20.50;;;;;;2261031;61;20489;-62
2023/04/04 00:59:46;0.00;0.00;0.62;0.00;0.00;0.62;1.67;0.80;;;22.60;20.60;;;;;;2260283;61;20364;-63
2023/04/04 01:02:30;0.00;0.00;0.62;0.00;0.00;0.62;1.60;0.80;;;22.50;20.50;;;;;;2264328;61;20356;-60
2023/04/04 01:05:15;0.00;0.00;0.62;0.00;0.00;0.62;1.30;0.70;;;22.50;20.50;;;;;;2263728;61;20884;-62
2023/04/04 01:08:00;0.00;0.00;0.62;0.00;0.00;0.62;1.40;0.80;;;22.50;20.50;;;;;;2264259;61;20384;-65
2023/04/04 01:10:48;0.00;0.00;0.62;0.00;0.00;0.62;1.50;0.90;;;22.50;20.50;;;;;;2260392;61;20403;-61
2023/04/04 01:13:34;0.00;0.00;0.62;0.00;0.00;0.62;1.47;0.80;;;22.50;20.50;;;;;;2260333;61;20368;-62
2023/04/04 01:16:20;0.00;0.00;0.62;0.00;0.00;0.62;1.50;0.90;;;22.50;20.50;;;;;;2260985;61;20375;-62
2023/04/04 01:19:10;0.00;0.00;0.62;0.00;0.00;0.62;1.20;0.70;;;22.50;20.50;;;;;;2263817;61;20421;-62
2023/04/04 01:21:58;0.00;0.00;0.62;0.00;0.00;0.62;1.77;1.13;;;22.50;20.50;;;;;;2260614;61;20357;-62
2023/04/04 01:24:45;0.00;0.00;0.62;0.00;0.00;0.62;1.60;0.87;;;22.50;20.50;;;;;;2260944;61;20913;-63
2023/04/04 01:27:31;0.00;0.00;0.62;0.00;0.00;0.62;1.40;0.70;;;22.50;20.50;;;;;;2260477;61;20383;-62
2023/04/04 01:30:26;0.00;0.00;0.62;0.00;0.00;0.62;1.80;1.00;;;22.40;20.40;;;;;;2260766;61;20360;-62
2023/04/04 01:33:21;0.00;0.00;0.62;0.00;0.00;0.62;1.80;0.90;;;22.40;20.40;;;;;;2260596;61;20893;-65
2023/04/04 01:36:16;0.00;0.00;0.62;0.00;0.00;0.62;1.60;0.80;;;22.40;20.40;;;;;;2263868;61;20356;-61
2023/04/04 01:39:12;0.00;0.00;0.62;0.00;0.00;0.62;1.73;0.73;;;22.40;20.40;;;;;;2263530;61;20486;-61
2023/04/04 01:41:58;0.00;0.00;0.62;0.00;0.00;0.62;1.40;0.83;;;22.40;20.40;;;;;;2260875;61;20364;-63
2023/04/04 01:44:44;0.00;0.00;0.62;0.00;0.00;0.62;1.40;0.80;;;22.40;20.40;;;;;;2260767;61;20768;-63
2023/04/04 01:47:37;0.00;0.00;0.62;0.00;0.00;0.62;1.23;0.67;;;22.40;20.40;;;;;;2260752;61;20427;-61
2023/04/04 01:50:22;0.00;0.00;0.62;0.00;0.00;0.62;1.60;0.77;;;22.40;20.40;;;;;;2259887;61;20927;-62
2023/04/04 01:53:07;0.00;0.00;0.62;0.00;0.00;0.62;1.63;0.90;;;22.40;20.40;;;;;;2263939;61;20769;-62
2023/04/04 01:55:53;0.00;0.00;0.62;0.00;0.00;0.62;1.50;0.90;;;22.40;20.40;;;;;;2264236;61;20815;-61
2023/04/04 01:58:38;0.00;0.00;0.62;0.00;0.00;0.62;1.30;0.77;;;22.40;20.40;;;;;;2260416;61;20383;-62
2023/04/04 02:01:25;0.00;0.00;0.62;0.00;0.00;0.62;1.60;0.80;;;22.30;20.40;;;;;;2260123;61;20359;-62
2023/04/04 02:04:11;0.00;0.00;0.62;0.00;0.00;0.62;1.93;1.00;;;22.30;20.40;;;;;;2260736;61;20429;-64
2023/04/04 02:06:58;0.00;0.00;0.62;0.00;0.00;0.62;1.50;0.80;;;22.30;20.40;;;;;;2264107;61;20379;-62
2023/04/04 02:09:43;0.00;0.00;0.62;0.00;0.00;0.62;1.37;0.77;;;22.30;20.40;;;;;;2264018;61;20946;-62
2023/04/04 02:12:28;0.00;0.00;0.62;0.00;0.00;0.62;1.90;1.30;;;22.30;20.40;;;;;;2263855;61;20855;-61
2023/04/04 02:15:13;0.00;0.00;0.62;0.00;0.00;0.62;1.30;0.80;;;22.30;20.90;;;;;;2264610;61;20884;-60
2023/04/04 02:17:59;0.00;0.00;0.62;0.00;0.00;0.62;1.60;0.80;;;22.30;20.40;;;;;;2264549;61;20380;-63
2023/04/04 02:20:45;0.00;0.00;0.62;0.00;0.00;0.62;1.53;1.20;;;22.30;20.40;;;;;;2263331;61;20423;-64
2023/04/04 02:23:30;0.00;0.00;0.62;0.00;0.00;0.62;1.67;0.80;;;22.30;20.40;;;;;;2261259;61;20629;-62
2023/04/04 02:26:14;0.00;0.00;0.62;0.00;0.00;0.62;1.50;0.90;;;22.20;20.30;;;;;;2264870;61;20372;-60
2023/04/04 02:28:59;0.00;0.00;0.62;0.00;0.00;0.62;1.50;0.90;;;22.30;20.40;;;;;;2263997;61;20368;-62
2023/04/04 02:31:44;0.00;0.00;0.62;0.00;0.00;0.62;1.30;0.90;;;22.30;20.40;;;;;;2264492;61;20383;-66
2023/04/04 02:34:31;0.00;0.00;0.62;0.00;0.00;0.62;1.30;0.70;;;22.30;20.40;;;;;;2263993;61;20407;-62
2023/04/04 02:37:16;0.00;0.00;0.62;0.00;0.00;0.62;1.40;0.87;;;22.20;20.30;;;;;;2264335;61;20395;-62
2023/04/04 02:40:02;0.00;0.00;0.62;0.00;0.00;0.62;1.40;0.90;;;22.20;20.30;;;;;;2261129;61;20363;-61
2023/04/04 02:42:48;0.00;0.00;0.62;0.00;0.00;0.62;1.60;0.93;;;22.30;20.40;;;;;;2260925;61;20356;-58
2023/04/04 02:45:32;0.00;0.00;0.62;0.00;0.00;0.62;1.40;0.90;;;22.20;20.30;;;;;;2264459;61;20363;-62
2023/04/04 02:48:37;0.00;0.00;0.62;0.00;0.00;0.62;1.40;0.73;;;22.20;20.30;;;;;;2264377;61;20401;-62
2023/04/04 02:51:22;0.00;0.00;0.62;0.00;0.00;0.62;1.60;0.90;;;22.20;20.30;;;;;;2264113;61;20426;-63
2023/04/04 02:54:08;0.00;0.00;0.62;0.00;0.00;0.62;1.53;1.00;;;22.20;20.30;;;;;;2264029;61;20780;-62
2023/04/04 02:56:58;0.00;0.00;0.62;0.00;0.00;0.62;1.57;0.80;;;22.20;20.30;;;;;;2260984;61;20385;-62
2023/04/04 02:59:43;0.00;0.00;0.62;0.00;0.00;0.62;1.40;0.77;;;22.20;20.30;;;;;;2264444;61;20478;-62
2023/04/04 03:02:28;0.00;0.00;0.62;0.00;0.00;0.62;1.40;0.70;;;22.20;20.30;;;;;;2264216;61;20762;-62
2023/04/04 03:05:13;0.00;0.00;0.62;0.00;0.00;0.62;1.50;0.80;;;22.20;20.30;;;;;;2263675;61;20430;-63
2023/04/04 03:08:00;0.00;0.00;0.62;0.00;0.00;0.62;1.40;0.70;;;22.20;20.30;;;;;;2264065;61;20380;-62
2023/04/04 03:10:47;0.00;0.00;0.62;0.00;0.00;0.62;1.67;0.90;;;22.20;20.30;;;;;;2263693;61;20388;-64
2023/04/04 03:13:32;0.00;0.00;0.62;0.00;0.00;0.62;1.80;1.10;;;22.20;20.30;;;;;;2264410;61;20391;-60
2023/04/04 03:16:18;0.00;0.00;0.62;0.00;0.00;0.62;1.50;0.80;;;22.20;20.30;;;;;;2263970;61;20511;-64
2023/04/04 03:19:07;0.00;0.00;0.62;0.00;0.00;0.62;1.83;1.00;;;22.10;20.20;;;;;;2260680;61;20927;-63
2023/04/04 03:21:52;0.00;0.00;0.62;0.00;0.00;0.62;1.30;0.70;;;22.10;20.20;;;;;;2264712;61;20455;-61
2023/04/04 03:24:38;0.00;0.00;0.62;0.00;0.00;0.62;1.40;0.70;;;22.10;20.20;;;;;;2264017;61;20447;-62
2023/04/04 03:27:23;0.00;0.00;0.62;0.00;0.00;0.62;1.30;0.87;;;22.10;20.20;;;;;;2263684;61;20468;-62
2023/04/04 03:30:10;0.00;0.00;0.62;0.00;0.00;0.62;1.40;0.80;;;22.10;20.20;;;;;;2264201;61;20352;-61
2023/04/04 03:32:55;0.00;0.00;0.62;0.00;0.00;0.62;1.70;1.00;;;22.10;20.20;;;;;;2261315;61;20396;-61
2023/04/04 03:35:40;0.00;0.00;0.62;0.00;0.00;0.62;1.40;0.70;;;22.10;20.20;;;;;;2263784;61;20359;-62
2023/04/04 03:38:25;0.00;0.00;0.62;0.00;0.00;0.62;1.40;0.80;;;22.10;20.20;;;;;;2263933;61;20765;-60
2023/04/04 03:41:11;0.00;0.00;0.62;0.00;0.00;0.62;1.70;1.00;;;22.10;20.20;;;;;;2263652;61;20413;-65
2023/04/04 03:43:56;0.00;0.00;0.62;0.00;0.00;0.62;1.40;0.80;;;22.10;20.20;;;;;;2264577;61;20441;-61
2023/04/04 03:46:42;0.00;0.00;0.62;0.00;0.00;0.62;1.60;1.00;;;22.10;20.20;;;;;;2263683;61;20383;-64
2023/04/04 03:49:31;0.00;0.00;0.62;0.00;0.00;0.62;1.40;0.80;;;22.10;20.20;;;;;;2263313;61;20433;-60
2023/04/04 03:52:17;0.00;0.00;0.62;0.00;0.00;0.62;1.50;0.80;;;22.10;20.20;;;;;;2263582;61;21001;-67
2023/04/04 03:55:02;0.00;0.00;0.62;0.00;0.00;0.62;1.50;0.90;;;22.00;20.20;;;;;;2264155;61;20376;-62
2023/04/04 03:57:49;0.00;0.00;0.62;0.00;0.00;0.62;2.00;1.00;;;22.00;20.20;;;;;;2264140;61;20835;-63
2023/04/04 04:00:35;0.00;0.00;0.62;0.00;0.00;0.62;1.50;0.70;;;22.00;20.20;;;;;;2263896;61;20475;-61
2023/04/04 04:03:21;0.00;0.00;0.62;0.00;0.00;0.62;1.40;0.80;;;22.00;20.20;;;;;;2263690;61;20387;-60
2023/04/04 04:06:06;0.00;0.00;0.62;0.00;0.00;0.62;1.80;0.80;;;22.00;20.20;;;;;;2264462;61;20398;-61
2023/04/04 04:08:50;0.00;0.00;0.62;0.00;0.00;0.62;1.33;0.70;;;22.00;20.20;;;;;;2264143;61;20392;-62
2023/04/04 04:11:35;0.00;0.00;0.62;0.00;0.00;0.62;1.50;0.77;;;22.00;20.20;;;;;;2263752;61;20923;-65
2023/04/04 04:14:22;0.00;0.00;0.62;0.00;0.00;0.62;1.53;0.80;;;22.00;20.20;;;;;;2264127;61;20739;-62
2023/04/04 04:17:07;0.00;0.00;0.62;0.00;0.00;0.62;1.83;0.90;;;22.00;20.20;;;;;;2264044;61;20383;-65
2023/04/04 04:19:52;0.00;0.00;0.62;0.00;0.00;0.62;1.20;0.60;;;22.00;20.20;;;;;;2263604;61;20844;-60
2023/04/04 04:22:37;0.00;0.00;0.62;0.00;0.00;0.62;1.57;0.70;;;22.00;20.20;;;;;;2264329;61;20351;-61
2023/04/04 04:25:22;0.00;0.00;0.62;0.00;0.00;0.62;1.40;0.70;;;22.00;20.20;;;;;;2263607;61;20899;-62
2023/04/04 04:28:26;0.00;0.00;0.62;0.00;0.00;0.62;1.97;1.00;;;21.90;20.10;;;;;;2263645;61;20458;-61
2023/04/04 04:31:13;0.00;0.00;0.62;0.00;0.00;0.62;1.40;0.70;;;22.00;20.20;;;;;;2263662;61;20502;-62
2023/04/04 04:34:08;0.00;0.00;0.62;0.00;0.00;0.62;1.60;0.70;;;21.90;20.10;;;;;;2263410;61;20402;-62
2023/04/04 04:36:54;0.00;0.00;0.62;0.00;0.00;0.62;1.30;0.70;;;21.90;20.10;;;;;;2260929;61;20784;-62
2023/04/04 04:39:51;0.00;0.00;0.62;0.00;0.00;0.62;1.27;0.70;;;21.90;20.10;;;;;;2264109;61;20359;-62
2023/04/04 04:43:01;0.00;0.00;0.62;0.00;0.00;0.62;1.37;0.80;;;21.90;20.10;;;;;;2264228;61;20495;-66
2023/04/04 04:45:47;0.00;0.00;0.62;0.00;0.00;0.62;2.00;0.90;;;21.90;20.10;;;;;;2263838;61;20363;-62
2023/04/04 04:48:33;0.00;0.00;0.62;0.00;0.00;0.62;1.70;0.87;;;21.90;20.10;;;;;;2263313;61;20421;-62
2023/04/04 04:51:18;0.00;0.00;0.62;0.00;0.00;0.62;2.30;0.90;;;21.90;20.10;;;;;;2263974;61;20924;-61
2023/04/04 04:54:10;0.00;0.00;0.62;0.00;0.00;0.62;1.40;0.80;;;21.90;20.10;;;;;;2264186;61;20359;-62
2023/04/04 04:56:57;0.00;0.00;0.62;0.00;0.00;0.62;1.30;0.80;;;21.90;20.10;;;;;;2260660;61;20380;-62
2023/04/04 04:59:42;0.00;0.00;0.62;0.00;0.00;0.62;1.50;0.90;;;21.90;20.10;;;;;;2260305;61;20623;-62
2023/04/04 05:02:29;0.00;0.00;0.62;0.00;0.00;0.62;1.83;0.87;;;21.90;20.10;;;;;;2263341;61;20454;-62
2023/04/04 05:05:15;0.00;0.00;0.62;0.00;0.00;0.62;1.40;0.80;;;21.90;20.70;;;;;;2261095;61;20371;-61
2023/04/04 05:08:01;0.00;0.00;0.62;0.00;0.00;0.62;1.73;0.80;;;21.90;20.10;;;;;;2286135;40;20850;-64
2023/04/04 05:10:46;0.00;0.00;0.62;0.00;0.00;0.62;1.30;0.80;;;21.90;20.10;;;;;;2259175;61;20423;-63
2023/04/04 05:13:32;0.00;0.00;0.62;0.00;0.00;0.62;1.30;0.70;;;21.80;20.10;;;;;;2259505;61;20507;-57
2023/04/04 05:16:19;0.00;0.00;0.62;0.00;0.00;0.62;1.63;0.90;;;21.80;20.10;;;;;;2258982;61;20953;-62
2023/04/04 05:19:05;0.00;0.00;0.62;0.00;0.00;0.62;1.30;0.80;;;21.80;20.10;;;;;;2254886;61;20462;-65
2023/04/04 05:21:57;0.00;0.00;0.62;0.00;0.00;0.62;1.60;1.00;;;21.80;20.00;;;;;;2255600;61;20420;-60
2023/04/04 05:25:03;0.00;0.00;0.62;0.00;0.00;0.62;1.60;0.90;;;21.80;20.10;;;;;;2255284;61;20347;-62
2023/04/04 05:27:48;0.00;0.00;0.62;0.00;0.00;0.62;1.57;1.03;;;21.80;20.10;;;;;;2255659;61;20378;-61
2023/04/04 05:30:37;0.00;0.00;0.62;0.00;0.00;0.62;1.50;0.83;;;21.80;20.10;;;;;;2255769;61;20358;-61
2023/04/04 05:33:32;0.00;0.00;0.62;0.00;0.00;0.62;2.00;0.90;;;21.80;20.10;;;;;;2254922;61;20866;-62
2023/04/04 05:36:41;0.00;0.00;0.62;0.00;0.00;0.62;1.87;0.93;;;21.80;20.10;;;;;;2255213;61;20513;-65
2023/04/04 05:39:27;0.00;0.00;0.62;0.00;0.00;0.62;1.67;0.90;;;21.80;20.10;;;;;;2255153;61;20361;-63
2023/04/04 05:42:23;0.00;0.00;0.62;0.00;0.00;0.62;1.60;1.00;;;21.80;20.20;;;;;;2255809;61;20358;-62
2023/04/04 05:45:11;0.00;0.00;0.62;0.00;0.00;0.62;1.77;1.00;;;21.80;20.10;;;;;;2255453;61;20454;-62
2023/04/04 05:47:56;0.00;0.00;0.62;0.00;0.00;0.62;1.80;1.10;;;21.70;20.10;;;;;;2255067;61;20436;-61
2023/04/04 05:50:45;0.00;0.00;0.62;0.00;0.00;0.62;2.20;1.00;;;21.80;20.20;;;;;;2257903;61;20416;-60
2023/04/04 05:53:31;0.00;0.00;0.62;0.00;0.00;0.62;1.40;0.90;;;21.70;20.10;;;;;;2255681;61;20374;-62
2023/04/04 05:56:18;0.00;0.00;0.62;0.00;0.00;0.62;1.40;0.70;;;21.70;20.10;;;;;;2255455;61;21860;-66
2023/04/04 05:59:03;0.00;0.00;0.62;0.00;0.00;0.62;1.40;0.83;;;21.70;20.10;;;;;;2254636;61;20399;-61
2023/04/04 06:01:51;0.00;0.00;0.62;0.00;0.00;0.62;1.40;0.80;;;21.70;20.10;;;;;;2257593;61;20406;-61
2023/04/04 06:04:37;0.00;0.00;0.62;0.00;0.00;0.62;1.60;0.90;;;21.70;20.10;;;;;;2256205;61;20899;-62
2023/04/04 06:07:24;0.00;0.00;0.62;0.00;0.00;0.62;1.50;1.00;;;21.70;20.10;;;;;;2258339;61;20500;-60
2023/04/04 06:10:10;0.00;0.00;0.62;0.00;0.00;0.62;1.60;0.83;;;21.70;20.10;;;;;;2255206;61;20496;-62
2023/04/04 06:12:57;0.00;0.00;0.62;0.00;0.00;0.62;1.70;0.90;;;21.70;20.10;;;;;;2255094;61;20437;-59
2023/04/04 06:15:42;0.00;0.00;0.62;0.00;0.00;0.62;1.50;1.00;;;21.70;20.10;;;;;;2255958;61;20362;-67
2023/04/04 06:18:27;0.00;0.00;0.62;0.00;0.00;0.62;1.50;0.93;;;21.70;20.10;;;;;;2257971;61;20365;-60
2023/04/04 06:21:12;0.00;0.00;0.62;0.00;0.00;0.62;1.60;0.80;;;21.70;20.10;;;;;;2257885;61;20361;-62
2023/04/04 06:23:58;0.00;0.00;0.62;0.00;0.00;0.62;1.57;0.90;;;21.70;20.10;;;;;;2255018;61;20849;-61
2023/04/04 06:26:43;0.00;0.00;0.62;0.00;0.00;0.62;1.43;0.77;;;21.70;20.20;;;;;;2255719;61;20417;-62
2023/04/04 06:29:30;0.00;0.00;0.62;0.00;0.00;0.62;1.90;0.90;;;21.70;20.20;;;;;;2257551;61;20362;-62
2023/04/04 06:32:19;0.00;0.00;0.62;0.00;0.00;0.62;1.57;1.00;;;21.70;20.20;;;;;;2252233;61;20406;-66
2023/04/04 06:35:05;0.00;0.00;0.62;0.00;0.00;0.62;1.50;0.87;;;21.70;20.20;;;;;;2258016;61;20455;-62
2023/04/04 06:37:59;0.00;0.00;0.62;0.00;0.00;0.62;1.77;0.90;;;21.70;20.20;;;;;;2258408;61;20435;-61
2023/04/04 06:40:45;0.00;0.00;0.62;0.00;0.00;0.62;1.60;0.90;;;21.70;20.20;;;;;;2258128;61;20412;-62
2023/04/04 06:43:30;0.00;0.00;0.62;0.00;0.00;0.62;1.80;0.93;;;21.70;20.20;;;;;;2258203;61;20416;-65
2023/04/04 06:46:16;0.00;0.00;0.62;0.00;0.00;0.62;1.60;1.00;;;21.70;20.20;;;;;;2255105;61;20443;-64
2023/04/04 06:49:01;0.00;0.00;0.62;0.00;0.00;0.62;1.30;0.80;;;21.60;20.10;;;;;;2255825;61;20366;-63
2023/04/04 06:51:49;0.00;0.00;0.62;0.00;0.00;0.62;1.70;0.90;;;21.70;20.20;;;;;;2256060;61;20476;-62
2023/04/04 06:54:34;0.00;0.00;0.62;0.00;0.00;0.62;1.60;0.80;;;21.60;20.20;;;;;;2252823;61;20386;-61
2023/04/04 06:57:19;0.00;0.00;0.62;0.00;0.00;0.62;1.67;1.17;;;21.70;20.20;;;;;;2256268;61;20385;-60
2023/04/04 07:00:06;0.00;0.00;0.62;0.00;0.00;0.62;1.67;0.87;;;21.60;20.10;;;;;;2258494;61;20362;-62
2023/04/04 07:02:58;0.00;0.00;0.62;0.00;0.00;0.62;1.50;0.93;;;21.60;20.20;;;;;;2255975;61;20368;-62
2023/04/04 07:05:43;0.00;0.00;0.62;0.00;0.00;0.62;1.80;1.20;;;21.70;20.20;;;;;;2256008;61;20378;-63
2023/04/04 07:08:29;0.00;0.00;0.62;0.00;0.00;0.62;1.90;1.10;;;21.60;20.20;;;;;;2255939;61;20369;-59
2023/04/04 07:11:14;0.00;0.00;0.62;0.00;0.00;0.62;1.80;0.90;;;21.70;20.30;;;;;;2256265;61;20409;-60
2023/04/04 07:13:59;0.00;0.00;0.62;0.00;0.00;0.62;1.80;1.10;;;21.70;20.30;;;;;;2256354;61;20746;-62
2023/04/04 07:16:44;0.00;0.00;0.62;0.00;0.00;0.62;1.90;1.30;;;21.60;20.20;;;;;;2256167;61;20389;-62
2023/04/04 07:19:30;0.00;0.00;0.62;0.00;0.00;0.62;1.80;1.00;;;21.60;20.20;;;;;;2255861;61;20377;-59
2023/04/04 07:22:15;0.00;0.00;0.62;0.00;0.00;0.62;2.40;1.40;;;21.60;20.30;;;;;;2256884;61;20366;-58
2023/04/04 07:25:00;0.00;0.00;0.62;0.00;0.00;0.62;2.13;1.30;;;21.70;20.30;;;;;;2256274;61;20425;-63
2023/04/04 07:27:45;0.00;0.00;0.62;0.00;0.00;0.62;2.50;1.63;;;21.60;20.20;;;;;;2256454;61;20390;-56
2023/04/04 07:30:31;0.00;0.00;0.62;0.00;0.00;0.62;2.33;1.60;;;21.60;20.20;;;;;;2255813;61;20361;-58
2023/04/04 07:33:16;0.00;0.00;0.62;0.00;0.00;0.62;2.50;1.40;;;21.60;20.20;;;;;;2256547;61;20799;-58
2023/04/04 07:36:02;0.00;0.00;0.62;0.00;0.00;0.62;2.67;1.60;;;21.70;20.30;;;;;;2256404;61;20385;-60
2023/04/04 07:38:47;0.00;0.00;0.62;0.00;0.00;0.62;2.90;1.73;;;21.60;20.20;;;;;;2256351;61;20734;-56
2023/04/04 07:41:32;0.00;0.00;0.62;0.00;0.00;0.62;2.30;1.50;;;21.70;20.30;;;;;;2256347;61;20890;-55
2023/04/04 07:44:16;0.00;0.00;0.62;0.00;0.00;0.62;2.50;1.80;;;21.60;20.20;;;;;;2256749;61;20377;-57
2023/04/04 07:47:01;0.00;0.00;0.62;0.00;0.00;0.62;3.20;2.17;;;21.70;20.30;;;;;;2256197;61;20431;-56
2023/04/04 07:49:46;0.00;0.00;0.62;0.00;0.00;0.62;3.40;2.00;;;21.60;20.30;;;;;;2256263;61;20898;-58
2023/04/04 07:52:33;0.00;0.00;0.62;0.00;0.00;0.62;2.90;1.93;;;21.70;20.30;;;;;;2255918;61;20795;-58
2023/04/04 07:55:19;0.00;0.00;0.62;0.00;0.00;0.62;3.07;2.07;;;21.60;20.30;;;;;;2256339;61;20500;-60
2023/04/04 07:58:03;0.00;0.00;0.62;0.00;0.00;0.62;2.50;1.80;;;21.60;20.30;;;;;;2256493;61;20466;-56
2023/04/04 08:00:48;0.00;0.00;0.62;0.00;0.00;0.62;2.80;2.00;;;21.60;20.30;;;;;;2255745;61;20492;-59
2023/04/04 08:03:32;0.00;0.00;0.62;0.00;0.00;0.62;3.50;2.57;;;21.60;20.20;;;;;;2256002;61;20386;-57
2023/04/04 08:06:17;0.00;0.00;0.62;0.00;0.00;0.62;3.90;3.00;;;21.60;20.30;;;;;;2256681;61;20361;-54
2023/04/04 08:09:03;0.00;0.00;0.62;0.00;0.00;0.62;3.63;2.40;;;21.60;20.30;;;;;;2255679;61;20362;-57
2023/04/04 08:11:48;0.00;0.00;0.62;0.00;0.00;0.62;3.80;2.80;;;21.70;20.30;;;;;;2256287;61;20409;-57
2023/04/04 08:14:33;0.00;0.00;0.62;0.00;0.00;0.62;4.50;3.10;;;21.60;20.30;;;;;;2255834;61;20902;-55
2023/04/04 08:17:17;0.00;0.00;0.62;0.00;0.00;0.62;3.90;2.97;;;21.60;20.30;;;;;;2256557;61;20561;-59
2023/04/04 08:20:03;0.00;0.00;0.62;0.00;0.00;0.62;3.60;2.80;;;21.60;20.30;;;;;;2256034;61;21022;-55
2023/04/04 08:22:48;0.00;0.00;0.62;0.00;0.00;0.62;5.20;4.33;;;21.60;20.30;;;;;;2255941;61;20910;-58
2023/04/04 08:25:35;0.00;0.00;0.62;0.00;0.00;0.62;4.00;2.97;;;21.60;20.30;;;;;;2256242;61;20380;-57
2023/04/04 08:28:19;0.00;0.00;0.62;0.00;0.00;0.62;4.03;3.00;;;21.60;20.30;;;;;;2256484;61;20386;-58
2023/04/04 08:31:04;0.00;0.00;0.62;0.00;0.00;0.62;3.90;2.70;;;21.60;20.40;;;;;;2255662;61;20453;-57
2023/04/04 08:33:49;0.00;0.00;0.62;0.00;0.00;0.62;5.50;3.60;;;21.70;20.40;;;;;;2256155;61;20370;-56
2023/04/04 08:36:34;0.00;0.00;0.62;0.00;0.00;0.62;3.70;2.63;;;21.70;20.40;;;;;;2256100;61;20424;-56
2023/04/04 08:39:19;0.00;0.00;0.62;0.00;0.00;0.62;5.30;3.10;;;21.60;20.40;;;;;;2256203;61;20362;-58
2023/04/04 08:42:08;0.00;0.00;0.62;0.00;0.00;0.62;3.97;2.97;;;21.70;20.40;;;;;;2256297;61;20354;-56
2023/04/04 08:44:54;0.00;0.00;0.62;0.00;0.00;0.62;4.10;3.07;;;21.60;20.40;;;;;;2255221;61;20458;-64
2023/04/04 08:47:41;0.00;0.00;0.62;0.00;0.00;0.62;4.50;3.10;;;21.70;20.50;;;;;;2256327;61;20382;-58
2023/04/04 08:50:27;0.00;0.00;0.62;0.00;0.00;0.62;4.53;3.07;;;21.60;20.40;;;;;;2256031;61;20362;-58
2023/04/04 08:53:14;0.00;0.00;0.62;0.00;0.00;0.62;4.50;3.27;;;21.70;20.40;;;;;;2255623;61;20978;-57
2023/04/04 08:56:00;0.00;0.00;0.62;0.00;0.00;0.62;3.93;2.97;;;21.70;20.40;;;;;;2256143;61;20776;-58
2023/04/04 08:58:46;0.00;0.00;0.62;0.00;0.00;0.62;4.33;3.13;;;21.70;20.50;;;;;;2256282;61;20401;-56
2023/04/04 09:01:30;0.00;0.00;0.62;0.00;0.00;0.62;4.90;3.50;;;21.70;20.40;;;;;;2256573;61;20377;-55
2023/04/04 09:04:16;0.00;0.00;0.62;0.00;0.00;0.62;6.27;3.70;;;21.70;20.40;;;;;;2256076;61;20362;-61
2023/04/04 09:07:02;0.00;0.00;0.62;0.00;0.00;0.62;4.57;3.37;;;21.70;20.50;;;;;;2256081;61;20382;-60
2023/04/04 09:09:49;0.00;0.00;0.62;0.00;0.00;0.62;3.60;2.90;;;21.70;20.50;;;;;;2256048;61;20953;-58
2023/04/04 09:12:36;0.00;0.00;0.62;0.00;0.00;0.62;4.90;3.60;;;21.70;20.50;;;;;;2256230;61;20389;-58
2023/04/04 09:15:22;0.00;0.00;0.62;0.00;0.00;0.62;4.43;3.10;;;21.70;20.50;;;;;;2255542;61;20902;-66
2023/04/04 09:18:07;0.00;0.00;0.62;0.00;0.00;0.62;4.30;3.33;;;21.70;21.00;;;;;;2256246;61;20421;-60
2023/04/04 09:20:51;0.00;0.00;0.62;0.00;0.00;0.62;3.80;2.87;;;21.70;20.50;;;;;;2255874;61;20397;-55
2023/04/04 09:23:36;0.00;0.00;0.62;0.00;0.00;0.62;4.07;3.10;;;21.70;20.50;;;;;;2256353;61;20381;-59
2023/04/04 09:26:21;0.00;0.00;0.62;0.00;0.00;0.62;3.60;2.80;;;21.70;20.50;;;;;;2256081;61;20429;-59
2023/04/04 09:29:07;0.00;0.00;0.62;0.00;0.00;0.62;4.70;3.70;;;21.70;20.50;;;;;;2255446;61;20764;-55
2023/04/04 09:31:54;0.00;0.00;0.62;0.00;0.00;0.62;3.57;2.90;;;21.80;20.60;;;;;;2255842;61;20927;-57
2023/04/04 09:34:39;0.00;0.00;0.62;0.00;0.00;0.62;3.60;2.77;;;21.80;20.50;;;;;;2256093;61;20393;-61
2023/04/04 09:37:24;0.00;0.00;0.62;0.00;0.00;0.62;3.13;2.73;;;21.80;20.60;;;;;;2255474;61;20460;-59
2023/04/04 09:40:09;0.00;0.00;0.62;0.00;0.00;0.62;3.90;2.70;;;21.80;20.50;;;;;;2255838;61;20385;-60
2023/04/04 09:42:58;0.00;0.00;0.62;0.00;0.00;0.62;4.90;3.20;;;21.80;20.50;;;;;;2256274;61;20401;-56
2023/04/04 09:45:44;0.00;0.00;0.62;0.00;0.00;0.62;3.23;2.70;;;21.80;20.60;;;;;;2256222;61;20412;-58
2023/04/04 09:48:33;0.00;0.00;0.62;0.00;0.00;0.62;3.50;2.47;;;21.80;20.60;;;;;;2256220;61;20983;-55
2023/04/04 09:51:18;0.00;0.00;0.62;0.00;0.00;0.62;4.10;2.93;;;21.80;20.60;;;;;;2255743;61;20412;-60
2023/04/04 09:54:05;0.00;0.00;0.62;0.00;0.00;0.62;3.77;2.50;;;21.80;20.60;;;;;;2255849;61;20413;-61
2023/04/04 09:56:51;0.00;0.00;0.62;0.00;0.00;0.62;4.20;3.27;;;21.80;20.60;;;;;;2256093;61;20386;-60
2023/04/04 09:59:36;0.00;0.00;0.62;0.00;0.00;0.62;3.73;2.70;;;21.80;20.60;;;;;;2255152;61;20402;-56
2023/04/04 10:02:21;0.00;0.00;0.62;0.00;0.00;0.62;4.37;3.07;;;21.90;20.70;;;;;;2256189;61;20408;-57
2023/04/04 10:05:10;0.00;0.00;0.62;0.00;0.00;0.62;5.20;3.10;;;21.90;20.70;;;;;;2256234;61;20436;-53
2023/04/04 10:07:56;0.00;0.00;0.62;0.00;0.00;0.62;3.43;2.67;;;21.90;20.70;;;;;;2256092;61;20999;-56
2023/04/04 10:10:47;0.00;0.00;0.62;0.00;0.00;0.62;6.00;3.03;;;21.90;20.70;;;;;;2255637;61;20373;-60
2023/04/04 10:13:39;0.00;0.00;0.62;0.00;0.00;0.62;3.40;2.83;;;21.90;20.70;;;;;;2255647;61;20759;-59
2023/04/04 10:16:25;0.00;0.00;0.62;0.00;0.00;0.62;4.73;3.40;;;21.90;20.70;;;;;;2255911;61;20389;-56
2023/04/04 10:19:12;0.00;0.00;0.62;0.00;0.00;0.62;3.70;2.80;;;21.90;20.70;;;;;;2256008;61;20370;-56
2023/04/04 10:22:00;0.00;0.00;0.62;0.00;0.00;0.62;4.20;2.97;;;21.90;20.70;;;;;;2255769;61;20733;-56
2023/04/04 10:24:45;0.00;0.00;0.62;0.00;0.00;0.62;3.67;2.90;;;22.00;20.80;;;;;;2255853;61;20370;-58
2023/04/04 10:27:31;0.00;0.00;0.62;0.00;0.00;0.62;3.20;2.60;;;22.00;20.80;;;;;;2256962;61;20373;-58
2023/04/04 10:30:16;0.00;0.00;0.62;0.00;0.00;0.62;3.80;3.23;;;22.00;20.80;;;;;;2256441;61;20370;-58
2023/04/04 10:33:06;0.00;0.00;0.62;0.00;0.00;0.62;3.50;2.93;;;22.00;20.80;;;;;;2256520;61;20393;-59
2023/04/04 10:35:57;0.00;0.00;0.62;0.00;0.00;0.62;3.80;2.60;;;22.00;20.80;;;;;;2256389;61;20397;-59
2023/04/04 10:38:54;0.00;0.00;0.62;0.00;0.00;0.62;4.03;3.20;;;22.10;20.90;;;;;;2256887;61;20353;-64
2023/04/04 10:41:40;0.00;0.00;0.62;0.00;0.00;0.62;4.20;3.17;;;22.00;20.80;;;;;;2257196;61;20358;-57
2023/04/04 10:44:32;0.00;0.00;0.62;0.00;0.00;0.62;3.77;2.87;;;22.10;20.90;;;;;;2256562;61;20377;-56
2023/04/04 10:47:22;0.00;0.00;0.62;0.00;0.00;0.62;3.50;2.90;;;22.10;20.90;;;;;;2256551;61;21045;-59
2023/04/04 10:50:11;0.00;0.00;0.62;0.00;0.00;0.62;4.00;3.07;;;22.10;20.90;;;;;;2255911;61;20366;-57
2023/04/04 10:52:58;0.00;0.00;0.62;0.00;0.00;0.62;4.03;3.03;;;22.10;20.80;;;;;;2256742;61;20812;-62
2023/04/04 10:55:45;0.00;0.00;0.62;0.00;0.00;0.62;3.60;2.77;;;22.20;20.90;;;;;;2256704;61;20392;-58
2023/04/04 10:58:30;0.00;0.00;0.62;0.00;0.00;0.62;4.17;3.23;;;22.20;20.90;;;;;;2256330;61;20442;-59